ADDS METAR Data INFO
IDs: Format: Raw Decoded Include TAF

Data at: 0513 UTC 21 Feb 2018

KPDK 201500Z 15006KT 1 1/2SM BR OVC003 17/17 A3039 RMK AO2 T01720167
KPDK 201453Z 15005KT 1SM BR OVC002 17/17 A3039 RMK AO2 SLP287 T01720167 53007
KPDK 201353Z 14004KT 1SM BR OVC002 16/16 A3038 RMK AO2 SLP283 T01610161
KPDK 201253Z 13004KT 3/4SM BR OVC002 16/16 A3038 RMK AO2 SLP283 T01610156
KPDK 201247Z 11005KT 3/4SM BR OVC002 16/16 A3038 RMK AO2
KPDK 201233Z 14003KT 1 3/4SM BR OVC003 16/16 A3038 RMK AO2 T01610156
KPDK 201153Z VRB03KT 5SM BR OVC004 16/15 A3037 RMK AO2 SLP280 T01560150 10156 20139 53010
KPDK 201138Z 12004KT 6SM BR OVC004 16/15 A3037 RMK AO2 T01560150
KPDK 201053Z AUTO 00000KT 6SM BR OVC005 16/14 A3036 RMK AO2 SLP278 T01560144
KPDK 201046Z AUTO 14004KT 6SM BR OVC005 16/14 A3036 RMK AO2 T01560144
KPDK 200953Z AUTO VRB03KT 5SM BR OVC003 14/14 A3034 RMK AO2 SLP272 T01440139
KPDK 200853Z AUTO 00000KT 4SM BR OVC003 14/14 A3034 RMK AO2 SLP270 T01390139 50001
KPDK 200817Z AUTO 00000KT 4SM BR BKN004 14/13 A3034 RMK AO2 T01390133
KPDK 200753Z AUTO VRB03KT 5SM BR SCT005 14/13 A3034 RMK AO2 SLP271 T01390133
KPDK 200734Z AUTO 00000KT 5SM BR SCT005 BKN060 14/13 A3034 RMK AO2 T01440133
KPDK 200653Z AUTO 00000KT 5SM BR OVC005 14/14 A3034 RMK AO2 SLP271 T01440139
KPDK 200640Z AUTO VRB03KT 5SM BR OVC005 14/14 A3034 RMK AO2 T01440139
KPDK 200553Z AUTO 07004KT 5SM BR OVC004 14/14 A3034 RMK AO2 SLP270 T01440139 10150 20139 50001
KPDK 200453Z AUTO 07005KT 5SM BR OVC003 14/14 A3034 RMK AO2 SLP272 T01440139 401780133
KPDK 200442Z AUTO 00000KT 5SM BR OVC003 14/13 A3034 RMK AO2 T01440133
KPDK 200400Z AUTO 07006KT 3SM BR OVC002 14/13 A3034 RMK AO2 T01390133
KPDK 200353Z VRB05KT 1 3/4SM BR OVC002 14/14 A3034 RMK AO2 SLP271 T01390139
KPDK 200253Z 1 3/4SM BR OVC002 14/14 A3033 RMK AO2 SLP270 T01440139 51010
KPDK 200200Z VRB03KT 2 1/2SM BR OVC002 14/14 A3032 RMK AO2 T01440139
KPDK 200153Z VRB03KT 1SM BR OVC002 14/14 A3032 RMK AO2 SLP265 T01440144
KPDK 200053Z 08004KT 1SM BR OVC002 14/14 A3030 RMK AO2 SLP260 T01440139
KPDK 200029Z VRB04KT 1SM BR OVC002 14/14 A3030 RMK AO2 T01440139
KPDK 192353Z VRB03KT 1SM BR OVC004 15/14 A3030 RMK AO2 SLP257 T01500139 10178 20150 51008
KPDK 192253Z VRB04KT 5SM BR OVC004 16/14 A3028 RMK AO2 SLP251 T01560144
KPDK 192153Z 07004KT 5SM BR OVC004 16/14 A3027 RMK AO2 SLP248 T01610144
KPDK 192053Z VRB04KT 7SM OVC007 17/15 A3027 RMK AO2 SLP246 T01720150 56021
KPDK 191953Z VRB04KT 6SM BR OVC005 17/16 A3027 RMK AO2 SLP246 T01720156
KPDK 191943Z 07007KT 6SM BR OVC005 17/16 A3027 RMK AO2 CIG 003V008 T01720156
KPDK 191853Z 09004KT 4SM BR BKN004 OVC014 16/15 A3030 RMK AO2 CIG 003V008 SLP256 T01610150
KPDK 191753Z 11004KT 3SM BR OVC003 16/15 A3033 RMK AO2 SLP268 T01560150 10156 20133 58007
KPDK 191722Z 00000KT 3SM BR OVC003 15/15 A3035 RMK AO2 T01500150